Time;durP1;ratioP1;P1;durP2;ratioP2;P2;SDS_P1;SDS_P2;PMS_P1;PMS_P2;Temp;Humidity;BMP_temperature;BMP_pressure;BME280_temperature;BME280_humidity;BME280_pressure;Samples;Min_cycle;Max_cycle;Signal;HPM_P1;HPM_P2
2020/12/19 00:00:38;;;;;;;5.57;3.00;;;4.30;68.60;;;;;;5031134;28;20041;-84
2020/12/19 00:03:04;;;;;;;7.20;3.53;;;4.30;68.60;;;;;;5035264;28;20053;-84
2020/12/19 00:05:30;;;;;;;5.17;3.53;;;4.30;68.90;;;;;;5034912;28;20025;-84
2020/12/19 00:07:56;;;;;;;6.07;3.37;;;4.20;68.70;;;;;;5034393;28;20391;-84
2020/12/19 00:10:22;;;;;;;11.10;2.40;;;4.20;68.80;;;;;;5033270;28;22140;-84
2020/12/19 00:12:47;;;;;;;5.17;3.27;;;4.20;68.50;;;;;;5032866;28;21059;-84
2020/12/19 00:15:17;;;;;;;6.13;2.97;;;4.20;69.10;;;;;;5033117;28;20365;-84
2020/12/19 00:17:44;;;;;;;9.27;2.63;;;4.20;68.70;;;;;;5035403;28;20056;-84
2020/12/19 00:20:10;;;;;;;3.63;2.13;;;4.10;68.80;;;;;;5032612;28;20079;-84
2020/12/19 00:22:36;;;;;;;5.00;2.30;;;4.00;69.30;;;;;;5032304;28;20101;-84
2020/12/19 00:25:02;;;;;;;7.03;3.07;;;4.10;69.40;;;;;;5034197;28;20122;-84
2020/12/19 00:27:28;;;;;;;6.60;3.17;;;4.20;69.30;;;;;;5032170;28;20472;-84
2020/12/19 00:29:54;;;;;;;5.03;2.77;;;4.20;69.00;;;;;;5033351;28;20038;-84
2020/12/19 00:32:20;;;;;;;4.07;2.70;;;4.20;68.60;;;;;;5018199;28;20026;-84
2020/12/19 00:34:46;;;;;;;7.27;3.03;;;4.10;68.60;;;;;;5033717;28;20041;-84
2020/12/19 00:37:12;;;;;;;3.93;2.30;;;4.10;68.90;;;;;;5034347;28;20033;-84
2020/12/19 00:39:37;;;;;;;4.97;2.93;;;4.00;68.80;;;;;;5026983;28;20087;-84
2020/12/19 00:42:03;;;;;;;4.50;2.77;;;4.00;68.90;;;;;;5034810;28;20087;-84
2020/12/19 00:44:29;;;;;;;6.67;3.90;;;3.90;68.80;;;;;;5034050;28;20053;-84
2020/12/19 00:46:54;;;;;;;8.20;4.20;;;3.90;69.30;;;;;;5032966;28;20033;-84
2020/12/19 00:49:20;;;;;;;7.17;3.57;;;3.80;69.20;;;;;;5034719;28;20030;-84
2020/12/19 00:51:46;;;;;;;14.97;7.90;;;3.80;69.10;;;;;;5030247;28;20387;-84
2020/12/19 00:54:12;;;;;;;9.53;4.87;;;3.80;69.20;;;;;;5034778;28;20029;-84
2020/12/19 00:56:38;;;;;;;7.70;4.70;;;3.80;69.30;;;;;;5020901;28;20048;-84
2020/12/19 00:59:04;;;;;;;7.70;4.57;;;3.90;69.40;;;;;;5032273;28;20041;-84
2020/12/19 01:01:30;;;;;;;9.20;4.97;;;3.90;69.30;;;;;;5033709;28;20033;-84
2020/12/19 01:03:57;;;;;;;11.47;5.57;;;3.90;69.10;;;;;;5033608;28;20064;-84
2020/12/19 01:06:25;;;;;;;12.17;7.30;;;3.90;69.10;;;;;;5034732;28;20060;-84
2020/12/19 01:08:54;;;;;;;9.50;4.93;;;3.90;69.10;;;;;;5033990;28;20033;-84
2020/12/19 01:11:22;;;;;;;9.13;5.20;;;3.90;69.00;;;;;;5033158;28;20036;-84
2020/12/19 01:13:49;;;;;;;10.30;6.10;;;3.90;68.80;;;;;;5032745;28;20026;-84
2020/12/19 01:16:16;;;;;;;8.13;5.70;;;4.00;68.80;;;;;;5028355;28;20057;-84
2020/12/19 01:18:46;;;;;;;10.77;5.83;;;4.00;68.80;;;;;;5033146;28;20108;-84
2020/12/19 01:21:20;;;;;;;14.90;8.53;;;4.00;68.60;;;;;;5031679;28;20052;-84
2020/12/19 01:23:47;;;;;;;8.40;5.30;;;4.00;68.60;;;;;;5028803;28;20044;-84
2020/12/19 01:26:14;;;;;;;8.27;4.07;;;4.00;68.50;;;;;;5028978;28;20034;-84
2020/12/19 01:28:41;;;;;;;4.70;2.90;;;3.90;68.70;;;;;;5030696;28;20083;-84
2020/12/19 01:31:08;;;;;;;3.97;2.60;;;3.90;68.60;;;;;;5031198;28;20503;-84
2020/12/19 01:33:35;;;;;;;5.40;2.47;;;3.90;68.60;;;;;;5034204;28;20120;-84
2020/12/19 01:36:01;;;;;;;4.93;2.13;;;3.90;68.60;;;;;;5034854;28;20036;-84
2020/12/19 01:38:27;;;;;;;4.67;2.87;;;3.80;68.70;;;;;;5034154;28;20415;-84
2020/12/19 01:40:55;;;;;;;7.33;3.67;;;3.80;68.60;;;;;;5032041;28;20032;-84
2020/12/19 01:43:22;;;;;;;8.63;4.07;;;3.80;69.20;;;;;;5033074;28;20029;-84
2020/12/19 01:45:49;;;;;;;7.23;3.53;;;3.70;68.80;;;;;;5034029;28;20550;-84
2020/12/19 01:48:25;;;;;;;5.47;2.67;;;3.70;69.00;;;;;;5033332;28;20068;-84
2020/12/19 01:50:53;;;;;;;4.20;2.33;;;3.70;68.90;;;;;;5033238;28;20049;-84
2020/12/19 01:53:20;;;;;;;4.47;2.57;;;3.70;68.80;;;;;;5035353;28;20790;-84
2020/12/19 01:55:46;;;;;;;4.20;2.30;;;3.70;69.00;;;;;;5039400;28;20434;-84
2020/12/19 01:58:12;;;;;;;3.97;1.83;;;3.80;69.10;;;;;;5031179;28;20036;-84
2020/12/19 02:00:41;;;;;;;4.10;2.17;;;3.80;69.00;;;;;;5036234;28;20022;-84
2020/12/19 02:03:07;;;;;;;3.63;2.13;;;3.80;68.80;;;;;;5019780;28;20045;-84
2020/12/19 02:05:36;;;;;;;4.27;2.37;;;3.80;68.80;;;;;;5032372;28;20033;-83
2020/12/19 02:08:03;;;;;;;3.50;1.97;;;3.80;68.70;;;;;;5021651;28;20451;-84
2020/12/19 02:10:32;;;;;;;4.90;3.17;;;3.80;68.70;;;;;;5036539;28;20437;-84
2020/12/19 02:13:07;;;;;;;2.67;1.83;;;3.70;68.90;;;;;;5036197;28;20036;-84
2020/12/19 02:15:45;;;;;;;3.60;1.87;;;3.60;69.20;;;;;;5037391;28;20025;-84
2020/12/19 02:18:11;;;;;;;6.33;2.83;;;3.60;69.30;;;;;;5035363;28;20025;-84
2020/12/19 02:20:37;;;;;;;4.20;2.27;;;3.60;69.40;;;;;;5033097;28;20472;-84
2020/12/19 02:23:05;;;;;;;4.00;2.47;;;3.60;69.40;;;;;;5040818;28;20539;-84
2020/12/19 02:25:38;;;;;;;2.90;1.83;;;3.60;69.20;;;;;;5036345;28;20021;-84
2020/12/19 02:28:06;;;;;;;3.63;2.27;;;3.60;69.30;;;;;;5034198;28;20029;-84
2020/12/19 02:30:32;;;;;;;5.53;2.07;;;3.60;69.20;;;;;;5025386;28;20057;-84
2020/12/19 02:32:59;;;;;;;4.03;2.30;;;3.60;69.30;;;;;;5027100;28;20024;-84
2020/12/19 02:35:26;;;;;;;5.60;2.80;;;3.60;68.90;;;;;;5036403;28;20022;-84
2020/12/19 02:37:52;;;;;;;4.53;2.53;;;3.60;69.00;;;;;;5035329;28;20025;-83
2020/12/19 02:40:18;;;;;;;4.10;2.10;;;3.50;69.10;;;;;;5036044;28;20035;-84
2020/12/19 02:42:44;;;;;;;3.33;2.20;;;3.50;69.30;;;;;;5034219;28;20454;-84
2020/12/19 02:45:13;;;;;;;4.53;1.97;;;3.60;69.40;;;;;;5036263;28;20025;-84
2020/12/19 02:47:39;;;;;;;6.40;1.67;;;3.60;69.30;;;;;;5035176;28;20057;-84
2020/12/19 02:50:06;;;;;;;4.53;2.10;;;3.60;69.30;;;;;;5036521;28;20036;-84
2020/12/19 02:52:32;;;;;;;2.73;1.67;;;3.60;69.10;;;;;;5036655;28;20482;-84
2020/12/19 02:54:58;;;;;;;2.63;1.40;;;3.60;69.50;;;;;;5036033;28;20025;-84
2020/12/19 02:57:24;;;;;;;3.63;1.77;;;3.70;69.60;;;;;;5035154;28;20014;-84
2020/12/19 02:59:49;;;;;;;3.73;1.70;;;3.60;69.20;;;;;;5031867;28;20033;-84
2020/12/19 03:02:15;;;;;;;2.53;1.63;;;3.60;69.60;;;;;;5023057;28;20050;-84
2020/12/19 03:04:41;;;;;;;4.37;1.90;;;3.60;69.60;;;;;;5018310;28;20032;-84
2020/12/19 03:07:07;;;;;;;5.13;2.17;;;3.50;69.60;;;;;;5035646;28;20049;-84
2020/12/19 03:09:33;;;;;;;2.97;1.67;;;3.50;69.80;;;;;;5034497;28;20048;-84
2020/12/19 03:11:58;;;;;;;3.30;1.70;;;3.60;70.00;;;;;;5034311;28;20036;-84
2020/12/19 03:14:24;;;;;;;3.53;1.77;;;3.60;69.60;;;;;;5034237;28;20794;-84
2020/12/19 03:16:50;;;;;;;2.63;1.40;;;3.60;69.50;;;;;;5033420;28;20021;-84
2020/12/19 03:19:16;;;;;;;2.67;1.33;;;3.60;69.50;;;;;;5022128;28;20030;-84
2020/12/19 03:21:41;;;;;;;3.60;1.57;;;3.60;69.60;;;;;;5029455;28;20048;-84
2020/12/19 03:24:07;;;;;;;4.27;1.67;;;3.60;69.50;;;;;;5034190;28;20029;-84
2020/12/19 03:26:33;;;;;;;3.87;1.87;;;3.60;69.40;;;;;;5032297;28;20026;-84
2020/12/19 03:28:58;;;;;;;3.27;1.77;;;3.60;69.40;;;;;;5034743;28;20029;-84
2020/12/19 03:31:24;;;;;;;3.10;1.77;;;3.60;69.30;;;;;;5034529;28;20021;-84
2020/12/19 03:33:51;;;;;;;2.70;1.70;;;3.50;69.20;;;;;;5035301;28;20033;-84
2020/12/19 03:36:16;;;;;;;5.70;1.93;;;3.60;69.20;;;;;;5033858;28;20021;-84
2020/12/19 03:38:42;;;;;;;3.70;1.77;;;3.50;69.20;;;;;;5033793;28;20075;-84
2020/12/19 03:41:09;;;;;;;7.40;2.43;;;3.50;69.30;;;;;;5035508;28;20092;-84
2020/12/19 03:43:34;;;;;;;4.47;1.90;;;3.40;69.20;;;;;;5034638;28;20383;-84
2020/12/19 03:46:00;;;;;;;3.33;1.70;;;3.30;69.20;;;;;;5036145;28;20025;-84
2020/12/19 03:48:26;;;;;;;4.43;2.53;;;3.40;69.60;;;;;;5032439;28;20388;-84
2020/12/19 03:50:52;;;;;;;3.63;1.93;;;3.50;69.80;;;;;;5030763;28;20571;-84
2020/12/19 03:53:18;;;;;;;3.77;2.10;;;3.50;69.50;;;;;;5034858;28;20080;-84
2020/12/19 03:55:44;;;;;;;5.60;3.30;;;3.50;69.60;;;;;;5034750;28;20048;-84
2020/12/19 03:58:09;;;;;;;4.10;2.20;;;3.50;69.60;;;;;;5029817;28;20506;-84
2020/12/19 04:00:35;;;;;;;4.67;2.77;;;3.60;69.80;;;;;;5034491;28;20037;-84
2020/12/19 04:03:01;;;;;;;3.80;2.40;;;3.60;69.50;;;;;;5031894;28;20088;-84
2020/12/19 04:05:26;;;;;;;5.73;2.50;;;3.70;69.40;;;;;;5030093;28;20049;-84
2020/12/19 04:07:52;;;;;;;6.27;3.57;;;3.60;69.00;;;;;;5030372;28;20029;-84
2020/12/19 04:10:18;;;;;;;7.63;3.33;;;3.50;68.80;;;;;;5034180;28;20041;-84
2020/12/19 04:12:44;;;;;;;4.57;3.10;;;3.50;69.10;;;;;;5019993;28;20025;-84
2020/12/19 04:15:11;;;;;;;4.73;2.37;;;3.30;69.00;;;;;;5034657;28;20497;-84
2020/12/19 04:17:38;;;;;;;4.73;2.40;;;3.30;69.60;;;;;;5033693;28;20048;-84
2020/12/19 04:20:06;;;;;;;4.27;2.67;;;3.30;69.80;;;;;;5034444;28;20067;-84
2020/12/19 04:22:32;;;;;;;4.77;2.60;;;3.40;69.80;;;;;;5033833;28;20444;-84
2020/12/19 04:24:58;;;;;;;3.47;1.97;;;3.50;69.90;;;;;;5034391;28;20065;-84
2020/12/19 04:27:23;;;;;;;4.73;2.30;;;3.50;69.60;;;;;;5034617;28;20033;-84
2020/12/19 04:29:49;;;;;;;4.70;2.50;;;3.60;69.50;;;;;;5033533;28;20176;-84
2020/12/19 04:32:15;;;;;;;3.87;2.23;;;3.70;69.40;;;;;;5034691;28;20041;-84
2020/12/19 04:34:40;;;;;;;4.40;2.20;;;3.60;69.10;;;;;;5032546;28;20037;-84
2020/12/19 04:37:07;;;;;;;3.20;1.73;;;3.60;69.20;;;;;;5033715;28;20037;-84
2020/12/19 04:39:33;;;;;;;4.07;2.13;;;3.60;69.20;;;;;;5019960;28;20026;-84
2020/12/19 04:41:58;;;;;;;2.60;1.70;;;3.60;69.30;;;;;;5031175;28;20069;-84
2020/12/19 04:44:26;;;;;;;4.17;1.63;;;3.50;69.20;;;;;;5034018;28;20036;-84
2020/12/19 04:46:52;;;;;;;4.77;1.90;;;3.60;69.40;;;;;;5030897;28;20042;-84
2020/12/19 04:49:18;;;;;;;4.57;2.03;;;3.60;69.60;;;;;;5034381;28;20033;-84
2020/12/19 04:51:45;;;;;;;4.23;1.80;;;3.70;69.40;;;;;;5020250;28;20048;-84
2020/12/19 04:54:10;;;;;;;2.90;1.93;;;3.60;69.20;;;;;;5034401;28;20391;-84
2020/12/19 04:56:38;;;;;;;6.37;2.00;;;3.60;69.40;;;;;;5033968;28;20029;-84
2020/12/19 04:59:05;;;;;;;3.97;2.17;;;3.50;69.30;;;;;;5033307;28;20083;-84
2020/12/19 05:01:31;;;;;;;3.37;2.07;;;3.60;69.60;;;;;;5032093;28;20029;-84
2020/12/19 05:03:57;;;;;;;3.97;2.50;;;3.60;69.30;;;;;;5033599;28;20041;-84
2020/12/19 05:06:28;;;;;;;3.93;1.83;;;3.50;69.30;;;;;;5030694;28;20029;-84
2020/12/19 05:08:55;;;;;;;3.87;2.40;;;3.50;69.50;;;;;;5033507;28;20034;-84
2020/12/19 05:11:24;;;;;;;2.87;1.63;;;3.50;69.40;;;;;;5026276;28;20022;-84
2020/12/19 05:13:50;;;;;;;4.33;1.80;;;3.40;69.50;;;;;;5033863;28;20458;-84
2020/12/19 05:16:17;;;;;;;4.73;1.87;;;3.50;69.80;;;;;;5032506;28;20096;-84
2020/12/19 05:18:43;;;;;;;3.40;1.80;;;3.60;69.70;;;;;;5032907;28;20057;-84
2020/12/19 05:21:12;;;;;;;2.37;1.63;;;3.60;69.60;;;;;;5030459;28;20422;-84
2020/12/19 05:23:41;;;;;;;4.50;2.00;;;3.60;69.30;;;;;;5033558;28;20025;-84
2020/12/19 05:26:08;;;;;;;3.27;2.00;;;3.60;69.40;;;;;;5032421;28;20053;-84
2020/12/19 05:28:36;;;;;;;3.97;2.23;;;3.60;69.20;;;;;;5030255;28;20053;-84
2020/12/19 05:31:02;;;;;;;15.70;6.70;;;3.50;69.10;;;;;;5038064;28;20033;-84
2020/12/19 05:33:55;;;;;;;5.90;2.93;;;3.50;69.40;;;;;;5033633;28;20025;-84
2020/12/19 05:36:21;;;;;;;;;;;3.50;69.30;;;;;;5028332;28;20476;-84
2020/12/19 05:38:48;;;;;;;5.70;2.57;;;3.40;69.20;;;;;;5036445;28;19936;-84
2020/12/19 05:41:14;;;;;;;13.53;6.90;;;3.40;69.30;;;;;;5037800;28;20043;-84
2020/12/19 05:43:48;;;;;;;9.93;5.53;;;3.40;69.30;;;;;;5033923;28;20429;-84
2020/12/19 05:46:34;;;;;;;7.97;4.50;;;3.40;69.50;;;;;;5022771;28;20033;-84
2020/12/19 05:49:01;;;;;;;4.20;2.13;;;3.40;69.50;;;;;;5037568;28;20030;-84
2020/12/19 05:51:29;;;;;;;5.40;3.00;;;3.40;69.30;;;;;;5036687;28;20018;-84
2020/12/19 05:54:10;;;;;;;4.87;2.70;;;3.40;69.50;;;;;;5032369;28;20490;-84
2020/12/19 05:56:41;;;;;;;5.70;2.77;;;3.40;69.40;;;;;;5023253;28;20033;-84
2020/12/19 05:59:10;;;;;;;5.03;2.83;;;3.40;69.40;;;;;;5035187;28;20029;-84
2020/12/19 06:01:49;;;;;;;7.43;3.80;;;3.30;69.20;;;;;;5023235;28;20061;-84
2020/12/19 06:04:16;;;;;;;6.93;4.20;;;3.30;69.40;;;;;;5031202;28;20041;-84
2020/12/19 06:06:47;;;;;;;8.10;4.17;;;3.30;69.40;;;;;;5038328;28;20387;-84
2020/12/19 06:09:14;;;;;;;6.30;3.97;;;3.40;69.50;;;;;;5031095;28;20041;-84
2020/12/19 06:11:44;;;;;;;7.47;5.07;;;3.40;69.30;;;;;;5036018;28;20078;-84
2020/12/19 06:14:14;;;;;;;9.50;3.90;;;3.30;69.20;;;;;;5037387;28;20025;-84
2020/12/19 06:16:42;;;;;;;11.27;7.23;;;3.30;69.20;;;;;;5036342;28;20025;-84
2020/12/19 06:19:16;;;;;;;10.33;6.27;;;3.20;69.30;;;;;;5032780;28;20026;-84
2020/12/19 06:21:48;;;;;;;8.87;5.73;;;3.20;69.40;;;;;;5033342;28;20475;-84
2020/12/19 06:24:46;;;;;;;8.93;5.97;;;3.20;69.50;;;;;;5035594;28;20079;-84
2020/12/19 06:27:32;;;;;;;8.03;5.47;;;3.20;69.30;;;;;;5036534;28;20037;-84
2020/12/19 06:29:58;;;;;;;11.60;5.73;;;3.20;69.40;;;;;;5028216;28;20026;-84
2020/12/19 06:32:26;;;;;;;7.97;5.20;;;3.20;69.40;;;;;;5045294;28;20022;-84
2020/12/19 06:35:05;;;;;;;7.20;4.60;;;3.20;69.30;;;;;;5021725;28;20137;-84
2020/12/19 06:37:36;;;;;;;8.97;4.17;;;3.20;69.50;;;;;;5032003;28;20103;-84
2020/12/19 06:40:14;;;;;;;11.10;7.33;;;3.20;69.40;;;;;;5032308;28;20476;-84
2020/12/19 06:42:41;;;;;;;14.30;9.73;;;3.20;69.50;;;;;;5026261;28;20040;-84
2020/12/19 06:45:20;;;;;;;10.97;7.17;;;3.20;69.40;;;;;;5035309;28;20495;-84
2020/12/19 06:47:45;;;;;;;9.27;6.20;;;3.30;69.20;;;;;;5036359;28;20025;-84
2020/12/19 06:50:11;;;;;;;10.43;6.23;;;3.20;69.10;;;;;;5023427;28;20044;-84
2020/12/19 06:52:37;;;;;;;12.43;7.57;;;3.10;69.10;;;;;;5033008;28;20357;-84
2020/12/19 06:55:19;;;;;;;16.27;9.67;;;3.10;69.50;;;;;;5036279;28;20464;-84
2020/12/19 06:57:56;;;;;;;20.75;11.82;;;3.10;69.30;;;;;;5031853;28;20021;-84
2020/12/19 07:00:28;;;;;;;15.47;8.97;;;3.00;69.30;;;;;;5035290;28;20041;-84
2020/12/19 07:03:02;;;;;;;13.13;8.30;;;3.00;69.30;;;;;;5034939;28;20605;-84
2020/12/19 07:05:33;;;;;;;14.97;8.07;;;3.10;69.50;;;;;;5034263;28;20040;-84
2020/12/19 07:08:19;;;;;;;11.87;7.80;;;3.10;69.50;;;;;;5035038;28;20065;-84
2020/12/19 07:10:46;;;;;;;15.13;9.73;;;3.10;69.30;;;;;;5036018;28;20033;-84
2020/12/19 07:13:12;;;;;;;16.67;10.77;;;3.00;69.20;;;;;;5030137;28;20053;-84
2020/12/19 07:15:46;;;;;;;16.90;10.10;;;3.00;69.30;;;;;;5031456;28;20030;-84
2020/12/19 07:18:29;;;;;;;16.37;8.57;;;3.00;69.50;;;;;;5035214;28;20060;-84
2020/12/19 07:21:02;;;;;;;;;;;3.00;69.50;;;;;;5030878;28;20021;-84
2020/12/19 07:23:33;;;;;;;13.75;8.18;;;3.00;69.40;;;;;;5032138;28;20342;-84
2020/12/19 07:25:59;;;;;;;12.83;8.13;;;3.00;69.30;;;;;;5034942;28;20032;-84
2020/12/19 07:28:25;;;;;;;12.37;7.30;;;3.00;69.40;;;;;;5034035;28;20027;-84
2020/12/19 07:30:51;;;;;;;11.43;6.53;;;3.00;69.70;;;;;;5033475;28;20471;-84
2020/12/19 07:33:17;;;;;;;12.10;7.03;;;3.00;69.70;;;;;;5042935;28;20909;-85
2020/12/19 07:35:43;;;;;;;11.93;7.20;;;3.10;69.70;;;;;;5026286;28;20472;-84
2020/12/19 07:38:09;;;;;;;12.73;8.20;;;3.10;69.60;;;;;;5035364;28;20091;-84
2020/12/19 07:40:35;;;;;;;12.63;8.40;;;3.20;69.50;;;;;;5027777;28;20499;-84
2020/12/19 07:43:02;;;;;;;17.77;8.77;;;3.10;69.30;;;;;;5033292;28;20468;-84
2020/12/19 07:45:28;;;;;;;25.07;14.30;;;3.10;69.40;;;;;;5018707;28;20064;-84
2020/12/19 07:47:55;;;;;;;16.33;10.13;;;3.10;69.10;;;;;;5034978;28;20061;-84
2020/12/19 07:50:29;;;;;;;25.33;13.37;;;3.10;69.30;;;;;;5036282;28;20025;-84
2020/12/19 07:53:02;;;;;;;20.07;12.57;;;3.10;69.40;;;;;;5036563;28;20068;-84
2020/12/19 07:55:28;;;;;;;18.60;12.00;;;3.20;69.30;;;;;;5030747;28;20032;-84
2020/12/19 07:57:55;;;;;;;16.47;9.43;;;3.10;69.10;;;;;;5034782;28;20017;-84
2020/12/19 08:00:24;;;;;;;23.37;13.13;;;3.10;69.20;;;;;;5032353;28;20026;-84
2020/12/19 08:02:50;;;;;;;32.77;18.93;;;3.10;69.30;;;;;;5030125;28;20045;-84
2020/12/19 08:05:16;;;;;;;26.97;15.73;;;3.20;69.10;;;;;;5034363;28;20559;-84
2020/12/19 08:07:42;;;;;;;28.67;16.13;;;3.10;69.20;;;;;;5034852;28;20063;-84
2020/12/19 08:10:10;;;;;;;29.50;16.27;;;3.10;69.00;;;;;;5034981;28;20037;-84
2020/12/19 08:12:36;;;;;;;27.20;14.37;;;3.10;69.30;;;;;;5029000;28;20032;-84
2020/12/19 08:15:06;;;;;;;26.30;15.13;;;3.10;69.30;;;;;;5033527;28;20017;-84
2020/12/19 08:17:38;;;;;;;24.57;15.27;;;3.10;69.40;;;;;;5034752;28;20475;-84
2020/12/19 08:20:04;;;;;;;28.50;15.68;;;3.10;69.30;;;;;;5029779;28;20538;-84
2020/12/19 08:22:31;;;;;;;21.60;13.67;;;3.20;69.30;;;;;;5033927;28;20395;-84
2020/12/19 08:24:57;;;;;;;23.60;13.60;;;3.20;69.20;;;;;;5034873;28;20083;-84
2020/12/19 08:27:29;;;;;;;19.90;12.50;;;3.20;69.20;;;;;;5031423;28;20033;-84
2020/12/19 08:30:07;;;;;;;21.77;13.07;;;3.10;69.20;;;;;;5034186;28;20036;-84
2020/12/19 08:32:34;;;;;;;24.57;13.03;;;3.20;69.50;;;;;;5036017;28;20113;-85
2020/12/19 08:35:00;;;;;;;25.67;15.63;;;3.30;69.50;;;;;;5034032;28;20029;-84
2020/12/19 08:37:26;;;;;;;30.10;15.67;;;3.30;69.30;;;;;;5035805;28;20025;-84
2020/12/19 08:40:06;;;;;;;24.90;15.60;;;3.30;69.30;;;;;;5034985;28;20052;-84
2020/12/19 08:42:33;;;;;;;24.77;14.77;;;3.30;69.40;;;;;;5034459;28;20029;-84
2020/12/19 08:45:21;;;;;;;29.33;18.03;;;3.30;69.50;;;;;;5019368;28;20033;-84
2020/12/19 08:47:50;;;;;;;30.37;16.63;;;3.30;69.40;;;;;;5028616;28;20673;-84
2020/12/19 08:50:15;;;;;;;31.33;16.23;;;3.40;69.40;;;;;;5033361;28;20041;-84
2020/12/19 08:52:41;;;;;;;26.70;14.17;;;3.40;69.40;;;;;;5033898;28;20026;-84
2020/12/19 08:55:07;;;;;;;16.00;11.10;;;3.40;69.40;;;;;;5033929;28;20028;-84
2020/12/19 08:57:33;;;;;;;14.80;9.67;;;3.40;69.60;;;;;;5034484;28;20464;-84
2020/12/19 09:00:15;;;;;;;16.17;10.57;;;3.50;69.60;;;;;;5021296;28;20021;-84
2020/12/19 09:02:42;;;;;;;26.30;14.10;;;3.60;69.80;;;;;;5031429;28;20105;-84
2020/12/19 09:05:09;;;;;;;17.63;10.93;;;3.60;69.70;;;;;;5042753;28;20037;-84
2020/12/19 09:07:35;;;;;;;14.97;8.83;;;3.80;70.20;;;;;;5036386;28;20025;-84
2020/12/19 09:10:21;;;;;;;14.23;8.60;;;3.90;70.10;;;;;;5034432;28;20037;-84
2020/12/19 09:12:46;;;;;;;11.73;6.60;;;4.00;70.10;;;;;;5031820;28;20033;-84
2020/12/19 09:15:17;;;;;;;12.33;6.73;;;4.20;69.80;;;;;;5034712;28;20172;-84
2020/12/19 09:17:43;;;;;;;7.23;4.10;;;4.40;69.60;;;;;;5033542;28;20028;-84
2020/12/19 09:20:09;;;;;;;10.17;5.27;;;4.60;68.90;;;;;;5031290;28;20465;-84
2020/12/19 09:22:34;;;;;;;7.43;4.40;;;4.80;68.40;;;;;;5027328;28;20754;-85
2020/12/19 09:25:00;;;;;;;8.70;5.77;;;5.00;67.90;;;;;;5033430;28;20079;-84
2020/12/19 09:27:26;;;;;;;8.53;4.73;;;5.20;67.60;;;;;;5033044;28;20040;-85
2020/12/19 09:29:51;;;;;;;7.17;4.10;;;5.50;67.10;;;;;;5029015;28;20029;-85
2020/12/19 09:32:17;;;;;;;6.03;4.03;;;5.70;66.90;;;;;;5026185;28;20027;-84
2020/12/19 09:34:43;;;;;;;9.77;5.23;;;6.00;66.20;;;;;;5025901;28;20026;-85
2020/12/19 09:37:08;;;;;;;13.23;7.20;;;6.10;65.60;;;;;;5035190;28;20436;-85
2020/12/19 09:39:34;;;;;;;15.80;7.60;;;6.10;65.40;;;;;;5028658;28;20121;-84
2020/12/19 09:42:00;;;;;;;29.10;14.87;;;6.20;65.40;;;;;;5029940;28;20029;-84
2020/12/19 09:44:25;;;;;;;10.37;6.23;;;6.50;65.20;;;;;;5029463;28;20048;-84
2020/12/19 09:46:51;;;;;;;9.33;6.50;;;6.60;64.90;;;;;;5033622;28;20068;-84
2020/12/19 09:49:17;;;;;;;8.47;5.63;;;6.90;64.50;;;;;;5034308;28;20029;-84
2020/12/19 09:51:43;;;;;;;9.93;6.17;;;7.00;64.10;;;;;;5034542;28;20026;-85
2020/12/19 09:54:08;;;;;;;9.57;5.97;;;7.20;63.50;;;;;;5034655;28;20025;-85
2020/12/19 09:56:38;;;;;;;4.97;2.77;;;7.40;62.90;;;;;;5035465;28;20022;-85
2020/12/19 09:59:04;;;;;;;3.93;2.60;;;7.60;61.90;;;;;;5034320;28;20033;-85
2020/12/19 10:01:30;;;;;;;6.83;3.33;;;7.70;61.70;;;;;;5032616;28;20137;-84
2020/12/19 10:03:56;;;;;;;7.97;4.23;;;7.90;61.00;;;;;;5030858;28;20037;-85
2020/12/19 10:06:21;;;;;;;9.77;4.07;;;8.10;60.60;;;;;;5028332;28;20057;-84
2020/12/19 10:08:47;;;;;;;8.70;4.10;;;8.20;60.00;;;;;;5030329;28;20079;-85
2020/12/19 10:11:13;;;;;;;7.13;4.10;;;8.40;59.50;;;;;;5031186;28;20056;-85
2020/12/19 10:13:39;;;;;;;4.73;2.90;;;8.50;59.00;;;;;;5030439;28;20703;-85
2020/12/19 10:16:05;;;;;;;5.87;2.93;;;8.50;58.60;;;;;;5037149;28;20083;-84
2020/12/19 10:18:31;;;;;;;5.93;3.13;;;8.60;58.30;;;;;;5030112;28;20051;-85
2020/12/19 10:20:56;;;;;;;6.00;3.13;;;8.80;58.20;;;;;;5036322;28;20080;-84
2020/12/19 10:23:22;;;;;;;5.07;2.80;;;9.00;57.70;;;;;;5038384;28;20044;-84
2020/12/19 10:25:48;;;;;;;8.83;3.53;;;9.00;57.20;;;;;;5037879;28;20116;-85
2020/12/19 10:28:13;;;;;;;5.23;3.47;;;9.10;56.90;;;;;;5039030;28;20124;-85
2020/12/19 10:30:39;;;;;;;5.07;3.30;;;9.20;56.80;;;;;;5034761;28;20037;-84
2020/12/19 10:33:05;;;;;;;9.10;4.27;;;9.50;56.80;;;;;;5035331;28;20064;-84
2020/12/19 10:35:30;;;;;;;5.07;3.07;;;9.80;56.10;;;;;;5034746;28;20464;-84
2020/12/19 10:37:56;;;;;;;5.63;3.30;;;10.00;55.60;;;;;;5039410;28;20029;-84
2020/12/19 10:40:22;;;;;;;5.07;3.07;;;10.10;55.10;;;;;;5037703;28;20503;-84
2020/12/19 10:42:47;;;;;;;5.47;2.60;;;10.10;55.00;;;;;;5036708;28;20037;-84
2020/12/19 10:45:13;;;;;;;3.90;2.40;;;10.20;54.90;;;;;;5036189;28;20029;-84
2020/12/19 10:47:39;;;;;;;6.73;3.23;;;10.30;54.70;;;;;;5036906;28;20029;-84
2020/12/19 10:50:04;;;;;;;5.13;2.60;;;10.50;54.10;;;;;;5036720;28;20034;-85
2020/12/19 10:52:30;;;;;;;5.63;3.00;;;10.60;53.50;;;;;;5038737;28;20100;-84
2020/12/19 10:54:56;;;;;;;6.17;2.70;;;10.70;53.10;;;;;;5037723;28;20032;-84
2020/12/19 10:57:22;;;;;;;5.33;2.73;;;10.70;53.00;;;;;;5035997;28;20034;-84
2020/12/19 10:59:47;;;;;;;5.33;2.80;;;10.80;52.60;;;;;;5037018;28;20033;-84
2020/12/19 11:02:13;;;;;;;3.53;2.47;;;10.80;52.60;;;;;;5034608;28;20128;-84
2020/12/19 11:04:39;;;;;;;4.53;3.03;;;10.90;52.60;;;;;;5035583;28;20047;-84
2020/12/19 11:07:04;;;;;;;6.20;3.10;;;11.00;52.40;;;;;;5027924;28;20079;-84
2020/12/19 11:09:30;;;;;;;5.57;2.53;;;11.00;52.30;;;;;;5018937;28;20029;-84
2020/12/19 11:11:56;;;;;;;3.70;2.60;;;11.00;52.30;;;;;;5035528;28;20030;-84
2020/12/19 11:14:23;;;;;;;8.00;2.83;;;11.10;52.40;;;;;;5030587;28;20478;-84
2020/12/19 11:16:49;;;;;;;5.00;2.47;;;11.10;52.30;;;;;;5035059;28;20484;-84
2020/12/19 11:19:14;;;;;;;5.67;3.70;;;11.20;52.10;;;;;;5036459;28;20025;-84
2020/12/19 11:21:45;;;;;;;10.00;5.83;;;11.30;51.90;;;;;;5036001;28;20037;-85
2020/12/19 11:24:11;;;;;;;11.90;7.90;;;11.50;51.70;;;;;;5033952;28;20112;-84
2020/12/19 11:26:38;;;;;;;9.67;5.70;;;11.50;51.70;;;;;;5035550;28;20036;-84
2020/12/19 11:29:04;;;;;;;10.17;5.43;;;11.60;51.60;;;;;;5035954;28;20036;-84
2020/12/19 11:31:29;;;;;;;7.60;5.10;;;11.70;51.60;;;;;;5033796;28;20599;-84
2020/12/19 11:33:55;;;;;;;8.70;4.20;;;11.80;51.30;;;;;;5024201;28;20029;-84
2020/12/19 11:36:22;;;;;;;6.40;3.70;;;11.80;50.80;;;;;;5027365;28;20021;-84
2020/12/19 11:38:48;;;;;;;8.30;4.50;;;11.60;50.70;;;;;;5017568;28;20080;-84
2020/12/19 11:41:21;;;;;;;5.90;3.77;;;11.50;51.00;;;;;;5036946;28;20029;-85
2020/12/19 11:43:47;;;;;;;7.00;3.70;;;11.60;50.80;;;;;;5036625;28;20036;-85
2020/12/19 11:46:12;;;;;;;7.13;4.37;;;11.60;50.90;;;;;;5035225;28;20009;-85
2020/12/19 11:48:38;;;;;;;6.33;4.17;;;11.60;50.80;;;;;;5036077;28;20376;-85
2020/12/19 11:51:04;;;;;;;6.90;4.30;;;11.50;50.80;;;;;;5035803;28;20053;-85
2020/12/19 11:53:29;;;;;;;7.03;4.37;;;11.40;50.90;;;;;;5035676;28;20029;-85
2020/12/19 11:55:55;;;;;;;5.67;3.93;;;11.50;51.00;;;;;;5035656;28;20037;-85
2020/12/19 11:58:21;;;;;;;9.07;4.63;;;11.60;51.00;;;;;;5036197;28;20053;-85
2020/12/19 12:00:46;;;;;;;8.53;4.50;;;11.70;50.90;;;;;;5027970;28;20395;-85
2020/12/19 12:03:12;;;;;;;4.80;2.40;;;11.80;50.90;;;;;;5027144;28;20064;-85
2020/12/19 12:05:38;;;;;;;5.37;2.77;;;11.70;50.10;;;;;;5032654;28;20026;-85
2020/12/19 12:08:04;;;;;;;5.83;3.83;;;11.60;50.20;;;;;;5035562;28;20020;-85
2020/12/19 12:10:29;;;;;;;7.53;3.20;;;11.60;50.40;;;;;;5035064;28;20092;-85
2020/12/19 12:12:55;;;;;;;5.93;2.80;;;11.60;50.50;;;;;;5034948;28;20031;-85
2020/12/19 12:15:21;;;;;;;4.10;2.63;;;11.80;50.50;;;;;;5035788;28;20090;-85
2020/12/19 12:17:47;;;;;;;6.47;3.80;;;11.80;50.20;;;;;;5036109;28;20079;-85
